sensor_id;sensor_type;location;lat;lon;timestamp;pressure;altitude;pressure_sealevel;temperature;humidity
10832;BME280;5469;48.574;8.768;2023-06-10T00:00:08;94520.22;;;22.04;42.48
10832;BME280;5469;48.574;8.768;2023-06-10T00:02:46;94517.19;;;22.06;42.21
10832;BME280;5469;48.574;8.768;2023-06-10T00:05:21;94518.63;;;22.00;42.46
10832;BME280;5469;48.574;8.768;2023-06-10T00:07:58;94518.19;;;22.17;41.59
10832;BME280;5469;48.574;8.768;2023-06-10T00:10:36;94515.78;;;22.12;42.10
10832;BME280;5469;48.574;8.768;2023-06-10T00:13:11;94509.53;;;22.08;41.95
10832;BME280;5469;48.574;8.768;2023-06-10T00:15:47;94521.50;;;21.91;42.67
10832;BME280;5469;48.574;8.768;2023-06-10T00:18:22;94519.34;;;21.65;43.69
10832;BME280;5469;48.574;8.768;2023-06-10T00:20:57;94522.31;;;21.60;43.72
10832;BME280;5469;48.574;8.768;2023-06-10T00:23:39;94518.06;;;21.59;43.68
10832;BME280;5469;48.574;8.768;2023-06-10T00:26:14;94523.97;;;21.65;43.46
10832;BME280;5469;48.574;8.768;2023-06-10T00:28:50;94518.91;;;21.63;43.52
10832;BME280;5469;48.574;8.768;2023-06-10T00:31:25;94512.59;;;21.40;44.16
10832;BME280;5469;48.574;8.768;2023-06-10T00:34:01;94517.28;;;21.43;43.80
10832;BME280;5469;48.574;8.768;2023-06-10T00:36:35;94519.31;;;21.46;43.97
10832;BME280;5469;48.574;8.768;2023-06-10T00:39:12;94512.06;;;21.50;43.27
10832;BME280;5469;48.574;8.768;2023-06-10T00:41:47;94510.34;;;21.42;43.37
10832;BME280;5469;48.574;8.768;2023-06-10T00:44:21;94510.81;;;21.31;44.29
10832;BME280;5469;48.574;8.768;2023-06-10T00:46:57;94507.69;;;21.29;43.93
10832;BME280;5469;48.574;8.768;2023-06-10T00:49:32;94508.22;;;21.19;44.74
10832;BME280;5469;48.574;8.768;2023-06-10T00:52:10;94506.41;;;21.39;43.40
10832;BME280;5469;48.574;8.768;2023-06-10T00:54:47;94510.03;;;21.31;43.75
10832;BME280;5469;48.574;8.768;2023-06-10T00:57:22;94511.50;;;20.97;45.15
10832;BME280;5469;48.574;8.768;2023-06-10T00:59:59;94506.66;;;21.18;44.04
10832;BME280;5469;48.574;8.768;2023-06-10T01:02:35;94507.97;;;20.80;45.73
10832;BME280;5469;48.574;8.768;2023-06-10T01:05:11;94510.25;;;20.78;45.81
10832;BME280;5469;48.574;8.768;2023-06-10T01:07:52;94514.06;;;20.77;45.62
10832;BME280;5469;48.574;8.768;2023-06-10T01:10:35;94515.69;;;20.94;44.99
10832;BME280;5469;48.574;8.768;2023-06-10T01:13:14;94518.59;;;20.73;45.68
10832;BME280;5469;48.574;8.768;2023-06-10T01:15:52;94517.06;;;20.60;45.98
10832;BME280;5469;48.574;8.768;2023-06-10T01:18:31;94515.41;;;20.55;46.02
10832;BME280;5469;48.574;8.768;2023-06-10T01:21:07;94511.56;;;20.84;45.25
10832;BME280;5469;48.574;8.768;2023-06-10T01:23:44;94504.47;;;20.64;45.83
10832;BME280;5469;48.574;8.768;2023-06-10T01:26:22;94514.84;;;20.49;46.40
10832;BME280;5469;48.574;8.768;2023-06-10T01:29:07;94512.16;;;20.49;45.98
10832;BME280;5469;48.574;8.768;2023-06-10T01:31:51;94520.13;;;20.46;45.97
10832;BME280;5469;48.574;8.768;2023-06-10T01:34:30;94517.81;;;20.32;46.84
10832;BME280;5469;48.574;8.768;2023-06-10T01:37:06;94525.69;;;20.25;46.94
10832;BME280;5469;48.574;8.768;2023-06-10T01:39:44;94522.75;;;20.30;46.53
10832;BME280;5469;48.574;8.768;2023-06-10T01:42:20;94518.44;;;20.41;46.15
10832;BME280;5469;48.574;8.768;2023-06-10T01:44:55;94511.28;;;20.33;46.29
10832;BME280;5469;48.574;8.768;2023-06-10T01:47:31;94515.13;;;20.32;46.54
10832;BME280;5469;48.574;8.768;2023-06-10T01:50:07;94516.47;;;20.26;46.75
10832;BME280;5469;48.574;8.768;2023-06-10T01:52:42;94519.63;;;20.28;46.32
10832;BME280;5469;48.574;8.768;2023-06-10T01:55:19;94524.81;;;20.21;46.99
10832;BME280;5469;48.574;8.768;2023-06-10T01:57:54;94525.06;;;20.16;47.20
10832;BME280;5469;48.574;8.768;2023-06-10T02:00:29;94518.03;;;20.39;45.86
10832;BME280;5469;48.574;8.768;2023-06-10T02:03:04;94527.22;;;20.26;45.80
10832;BME280;5469;48.574;8.768;2023-06-10T02:05:39;94524.19;;;20.40;45.56
10832;BME280;5469;48.574;8.768;2023-06-10T02:08:14;94521.78;;;20.50;45.10
10832;BME280;5469;48.574;8.768;2023-06-10T02:10:51;94523.78;;;20.54;44.39
10832;BME280;5469;48.574;8.768;2023-06-10T02:13:26;94525.03;;;20.56;44.70
10832;BME280;5469;48.574;8.768;2023-06-10T02:16:01;94524.31;;;20.31;46.26
10832;BME280;5469;48.574;8.768;2023-06-10T02:18:37;94526.00;;;20.23;46.42
10832;BME280;5469;48.574;8.768;2023-06-10T02:21:14;94526.63;;;20.04;47.35
10832;BME280;5469;48.574;8.768;2023-06-10T02:23:49;94530.69;;;19.86;48.13
10832;BME280;5469;48.574;8.768;2023-06-10T02:26:25;94534.69;;;20.04;46.66
10832;BME280;5469;48.574;8.768;2023-06-10T02:29:00;94533.84;;;19.88;47.54
10832;BME280;5469;48.574;8.768;2023-06-10T02:31:35;94534.69;;;19.92;47.01
10832;BME280;5469;48.574;8.768;2023-06-10T02:34:11;94534.06;;;19.95;46.58
10832;BME280;5469;48.574;8.768;2023-06-10T02:36:46;94523.53;;;19.78;47.57
10832;BME280;5469;48.574;8.768;2023-06-10T02:39:24;94532.72;;;19.77;48.32
10832;BME280;5469;48.574;8.768;2023-06-10T02:42:00;94537.88;;;19.70;48.43
10832;BME280;5469;48.574;8.768;2023-06-10T02:44:35;94541.88;;;19.63;48.77
10832;BME280;5469;48.574;8.768;2023-06-10T02:47:10;94539.44;;;19.71;48.34
10832;BME280;5469;48.574;8.768;2023-06-10T02:49:45;94543.00;;;19.62;48.73
10832;BME280;5469;48.574;8.768;2023-06-10T02:52:20;94532.69;;;19.52;48.87
10832;BME280;5469;48.574;8.768;2023-06-10T02:54:56;94539.63;;;19.53;49.21
10832;BME280;5469;48.574;8.768;2023-06-10T02:57:32;94544.78;;;19.58;47.81
10832;BME280;5469;48.574;8.768;2023-06-10T03:00:09;94540.31;;;19.50;48.75
10832;BME280;5469;48.574;8.768;2023-06-10T03:02:44;94532.69;;;19.52;49.09
10832;BME280;5469;48.574;8.768;2023-06-10T03:05:20;94541.44;;;19.61;48.10
10832;BME280;5469;48.574;8.768;2023-06-10T03:07:55;94541.44;;;19.61;48.62
10832;BME280;5469;48.574;8.768;2023-06-10T03:10:30;94548.19;;;19.68;47.57
10832;BME280;5469;48.574;8.768;2023-06-10T03:13:07;94542.31;;;19.65;47.44
10832;BME280;5469;48.574;8.768;2023-06-10T03:15:43;94544.44;;;19.60;48.66
10832;BME280;5469;48.574;8.768;2023-06-10T03:18:19;94545.44;;;19.55;49.03
10832;BME280;5469;48.574;8.768;2023-06-10T03:20:57;94551.06;;;19.50;49.02
10832;BME280;5469;48.574;8.768;2023-06-10T03:23:32;94541.66;;;19.44;49.43
10832;BME280;5469;48.574;8.768;2023-06-10T03:26:07;94546.91;;;19.40;48.78
10832;BME280;5469;48.574;8.768;2023-06-10T03:28:45;94550.59;;;19.36;48.78
10832;BME280;5469;48.574;8.768;2023-06-10T03:31:20;94552.84;;;19.34;48.72
10832;BME280;5469;48.574;8.768;2023-06-10T03:33:54;94556.41;;;19.26;49.20
10832;BME280;5469;48.574;8.768;2023-06-10T03:36:29;94557.53;;;19.37;48.19
10832;BME280;5469;48.574;8.768;2023-06-10T03:39:05;94557.50;;;19.12;50.37
10832;BME280;5469;48.574;8.768;2023-06-10T03:41:40;94554.41;;;19.35;48.30
10832;BME280;5469;48.574;8.768;2023-06-10T03:44:17;94558.22;;;19.34;49.29
10832;BME280;5469;48.574;8.768;2023-06-10T03:46:54;94554.41;;;19.35;48.78
10832;BME280;5469;48.574;8.768;2023-06-10T03:49:29;94552.94;;;19.37;48.06
10832;BME280;5469;48.574;8.768;2023-06-10T03:52:05;94561.03;;;19.50;47.45
10832;BME280;5469;48.574;8.768;2023-06-10T03:54:40;94565.59;;;19.37;49.60
10832;BME280;5469;48.574;8.768;2023-06-10T03:57:15;94567.16;;;19.26;49.52
10832;BME280;5469;48.574;8.768;2023-06-10T03:59:52;94563.69;;;19.37;48.78
10832;BME280;5469;48.574;8.768;2023-06-10T04:02:26;94560.19;;;19.25;49.86
10832;BME280;5469;48.574;8.768;2023-06-10T04:05:02;94569.19;;;19.41;48.13
10832;BME280;5469;48.574;8.768;2023-06-10T04:07:37;94566.03;;;19.27;49.70
10832;BME280;5469;48.574;8.768;2023-06-10T04:10:14;94566.91;;;19.18;50.35
10832;BME280;5469;48.574;8.768;2023-06-10T04:12:49;94567.63;;;19.40;47.92
10832;BME280;5469;48.574;8.768;2023-06-10T04:15:26;94572.44;;;19.47;49.33
10832;BME280;5469;48.574;8.768;2023-06-10T04:18:01;94564.50;;;19.38;50.04
10832;BME280;5469;48.574;8.768;2023-06-10T04:20:36;94563.38;;;19.51;49.46
10832;BME280;5469;48.574;8.768;2023-06-10T04:23:11;94558.00;;;19.51;48.59
10832;BME280;5469;48.574;8.768;2023-06-10T04:25:46;94562.25;;;19.40;50.10
10832;BME280;5469;48.574;8.768;2023-06-10T04:28:21;94563.59;;;19.34;51.25
10832;BME280;5469;48.574;8.768;2023-06-10T04:30:58;94572.31;;;19.31;51.23
10832;BME280;5469;48.574;8.768;2023-06-10T04:33:33;94575.13;;;19.34;50.89
10832;BME280;5469;48.574;8.768;2023-06-10T04:36:09;94578.16;;;19.33;52.19
10832;BME280;5469;48.574;8.768;2023-06-10T04:38:44;94578.38;;;19.40;51.18
10832;BME280;5469;48.574;8.768;2023-06-10T04:41:19;94588.66;;;19.26;51.77
10832;BME280;5469;48.574;8.768;2023-06-10T04:43:54;94588.44;;;19.31;51.95
10832;BME280;5469;48.574;8.768;2023-06-10T04:46:30;94581.63;;;19.33;51.77
10832;BME280;5469;48.574;8.768;2023-06-10T04:49:05;94587.56;;;19.39;50.73
10832;BME280;5469;48.574;8.768;2023-06-10T04:51:40;94587.66;;;19.42;51.87
10832;BME280;5469;48.574;8.768;2023-06-10T04:54:15;94590.00;;;19.32;53.03
10832;BME280;5469;48.574;8.768;2023-06-10T04:56:50;94582.19;;;19.39;51.46
10832;BME280;5469;48.574;8.768;2023-06-10T04:59:26;94594.50;;;19.28;53.01
10832;BME280;5469;48.574;8.768;2023-06-10T05:02:03;94590.41;;;19.21;53.46
10832;BME280;5469;48.574;8.768;2023-06-10T05:04:38;94585.53;;;19.36;52.49
10832;BME280;5469;48.574;8.768;2023-06-10T05:07:14;94593.28;;;19.50;52.62
10832;BME280;5469;48.574;8.768;2023-06-10T05:09:49;94597.84;;;19.37;52.50
10832;BME280;5469;48.574;8.768;2023-06-10T05:12:24;94590.69;;;19.41;53.26
10832;BME280;5469;48.574;8.768;2023-06-10T05:14:59;94593.38;;;19.53;51.56
10832;BME280;5469;48.574;8.768;2023-06-10T05:17:36;94600.72;;;19.90;50.18
10832;BME280;5469;48.574;8.768;2023-06-10T05:20:12;94603.84;;;19.92;50.75
10832;BME280;5469;48.574;8.768;2023-06-10T05:22:48;94603.97;;;19.95;50.99
10832;BME280;5469;48.574;8.768;2023-06-10T05:25:25;94605.09;;;19.94;50.84
10832;BME280;5469;48.574;8.768;2023-06-10T05:28:00;94602.16;;;20.12;50.86
10832;BME280;5469;48.574;8.768;2023-06-10T05:30:36;94610.00;;;20.04;51.82
10832;BME280;5469;48.574;8.768;2023-06-10T05:33:12;94600.63;;;20.11;51.79
10832;BME280;5469;48.574;8.768;2023-06-10T05:35:47;94608.78;;;20.02;53.09
10832;BME280;5469;48.574;8.768;2023-06-10T05:38:22;94610.59;;;19.98;53.21
10832;BME280;5469;48.574;8.768;2023-06-10T05:40:57;94611.38;;;20.11;52.95
10832;BME280;5469;48.574;8.768;2023-06-10T05:43:32;94614.50;;;19.88;55.02
10832;BME280;5469;48.574;8.768;2023-06-10T05:46:07;94620.53;;;20.10;54.84
10832;BME280;5469;48.574;8.768;2023-06-10T05:48:44;94623.69;;;20.12;53.53
10832;BME280;5469;48.574;8.768;2023-06-10T05:51:18;94616.03;;;20.26;52.23
10832;BME280;5469;48.574;8.768;2023-06-10T05:53:53;94610.63;;;20.38;53.37
10832;BME280;5469;48.574;8.768;2023-06-10T05:56:28;94623.22;;;19.97;56.00
10832;BME280;5469;48.574;8.768;2023-06-10T05:59:03;94619.50;;;20.39;54.94
10832;BME280;5469;48.574;8.768;2023-06-10T06:01:38;94618.94;;;20.58;53.55
10832;BME280;5469;48.574;8.768;2023-06-10T06:04:15;94624.03;;;20.75;51.58
10832;BME280;5469;48.574;8.768;2023-06-10T06:06:50;94630.81;;;20.57;54.22
10832;BME280;5469;48.574;8.768;2023-06-10T06:09:25;94623.88;;;20.56;54.14
10832;BME280;5469;48.574;8.768;2023-06-10T06:12:00;94627.56;;;20.63;51.56
10832;BME280;5469;48.574;8.768;2023-06-10T06:14:38;94629.91;;;20.65;52.90
10832;BME280;5469;48.574;8.768;2023-06-10T06:17:14;94629.00;;;20.73;54.28
10832;BME280;5469;48.574;8.768;2023-06-10T06:19:50;94629.91;;;20.65;53.76
10832;BME280;5469;48.574;8.768;2023-06-10T06:22:25;94615.97;;;20.75;53.51
10832;BME280;5469;48.574;8.768;2023-06-10T06:25:00;94622.75;;;20.97;53.69
10832;BME280;5469;48.574;8.768;2023-06-10T06:27:35;94623.06;;;20.95;53.93
10832;BME280;5469;48.574;8.768;2023-06-10T06:30:11;94620.63;;;20.90;54.83
10832;BME280;5469;48.574;8.768;2023-06-10T06:32:47;94627.97;;;21.06;54.25
10832;BME280;5469;48.574;8.768;2023-06-10T06:35:23;94630.28;;;20.91;56.61
10832;BME280;5469;48.574;8.768;2023-06-10T06:37:58;94638.66;;;21.30;53.80
10832;BME280;5469;48.574;8.768;2023-06-10T06:40:34;94628.91;;;21.26;54.50
10832;BME280;5469;48.574;8.768;2023-06-10T06:43:09;94629.47;;;21.19;53.86
10832;BME280;5469;48.574;8.768;2023-06-10T06:45:44;94639.50;;;21.34;54.48
10832;BME280;5469;48.574;8.768;2023-06-10T06:48:19;94628.75;;;21.06;54.75
10832;BME280;5469;48.574;8.768;2023-06-10T06:50:56;94640.00;;;21.24;54.73
10832;BME280;5469;48.574;8.768;2023-06-10T06:53:31;94641.50;;;21.37;54.27
10832;BME280;5469;48.574;8.768;2023-06-10T06:56:06;94644.03;;;21.30;54.42
10832;BME280;5469;48.574;8.768;2023-06-10T06:58:43;94638.78;;;21.50;54.19
10832;BME280;5469;48.574;8.768;2023-06-10T07:01:18;94637.41;;;21.56;54.89
10832;BME280;5469;48.574;8.768;2023-06-10T07:03:54;94633.78;;;21.80;53.60
10832;BME280;5469;48.574;8.768;2023-06-10T07:06:31;94642.38;;;21.86;54.41
10832;BME280;5469;48.574;8.768;2023-06-10T07:09:06;94643.16;;;21.86;53.84
10832;BME280;5469;48.574;8.768;2023-06-10T07:11:42;94642.72;;;21.68;54.12
10832;BME280;5469;48.574;8.768;2023-06-10T07:14:17;94635.50;;;22.04;53.27
10832;BME280;5469;48.574;8.768;2023-06-10T07:16:54;94640.63;;;22.09;53.29
10832;BME280;5469;48.574;8.768;2023-06-10T07:19:29;94638.38;;;22.11;54.19
10832;BME280;5469;48.574;8.768;2023-06-10T07:22:05;94647.88;;;22.21;52.83
10832;BME280;5469;48.574;8.768;2023-06-10T07:24:40;94634.91;;;22.27;52.69
10832;BME280;5469;48.574;8.768;2023-06-10T07:27:15;94646.53;;;22.31;52.71
10832;BME280;5469;48.574;8.768;2023-06-10T07:29:50;94633.56;;;22.20;52.86
10832;BME280;5469;48.574;8.768;2023-06-10T07:32:26;94647.22;;;22.43;52.87
10832;BME280;5469;48.574;8.768;2023-06-10T07:35:02;94642.19;;;22.42;52.96
10832;BME280;5469;48.574;8.768;2023-06-10T07:37:38;94636.44;;;22.28;53.64
10832;BME280;5469;48.574;8.768;2023-06-10T07:40:14;94640.81;;;22.52;52.36
10832;BME280;5469;48.574;8.768;2023-06-10T07:42:49;94640.81;;;22.67;54.07
10832;BME280;5469;48.574;8.768;2023-06-10T07:45:25;94633.91;;;22.89;54.48
10832;BME280;5469;48.574;8.768;2023-06-10T07:48:00;94639.75;;;22.92;53.25
10832;BME280;5469;48.574;8.768;2023-06-10T07:50:34;94634.69;;;22.90;53.32
10832;BME280;5469;48.574;8.768;2023-06-10T07:53:12;94634.56;;;22.83;54.60
10832;BME280;5469;48.574;8.768;2023-06-10T07:55:48;94631.44;;;23.20;53.03
10832;BME280;5469;48.574;8.768;2023-06-10T07:58:23;94627.16;;;23.38;52.49
10832;BME280;5469;48.574;8.768;2023-06-10T08:00:58;94634.16;;;23.20;53.29
10832;BME280;5469;48.574;8.768;2023-06-10T08:03:33;94634.25;;;23.46;52.83
10832;BME280;5469;48.574;8.768;2023-06-10T08:06:08;94635.13;;;23.50;52.24
10832;BME280;5469;48.574;8.768;2023-06-10T08:08:46;94624.78;;;23.37;52.27
10832;BME280;5469;48.574;8.768;2023-06-10T08:11:21;94632.50;;;23.58;53.11
10832;BME280;5469;48.574;8.768;2023-06-10T08:13:57;94632.31;;;23.89;52.64
10832;BME280;5469;48.574;8.768;2023-06-10T08:16:33;94628.25;;;23.57;51.28
10832;BME280;5469;48.574;8.768;2023-06-10T08:19:08;94634.63;;;23.68;51.95
10832;BME280;5469;48.574;8.768;2023-06-10T08:21:43;94625.00;;;23.70;51.73
10832;BME280;5469;48.574;8.768;2023-06-10T08:24:20;94630.69;;;24.08;50.07
10832;BME280;5469;48.574;8.768;2023-06-10T08:26:55;94639.19;;;24.10;50.94
10832;BME280;5469;48.574;8.768;2023-06-10T08:29:31;94628.47;;;23.90;49.10
10832;BME280;5469;48.574;8.768;2023-06-10T08:32:06;94624.03;;;24.28;48.68
10832;BME280;5469;48.574;8.768;2023-06-10T08:34:41;94625.47;;;24.22;48.07
10832;BME280;5469;48.574;8.768;2023-06-10T08:37:16;94638.66;;;24.24;49.00
10832;BME280;5469;48.574;8.768;2023-06-10T08:39:53;94635.69;;;24.59;48.79
10832;BME280;5469;48.574;8.768;2023-06-10T08:42:33;94635.44;;;24.68;47.55
10832;BME280;5469;48.574;8.768;2023-06-10T08:45:16;94639.88;;;24.53;48.82
10832;BME280;5469;48.574;8.768;2023-06-10T08:47:52;94636.31;;;24.75;46.08
10832;BME280;5469;48.574;8.768;2023-06-10T08:50:30;94633.09;;;24.96;46.24
10832;BME280;5469;48.574;8.768;2023-06-10T08:53:06;94642.28;;;25.18;48.23
10832;BME280;5469;48.574;8.768;2023-06-10T08:55:44;94630.38;;;24.96;47.11
10832;BME280;5469;48.574;8.768;2023-06-10T08:58:22;94639.22;;;25.23;46.80
10832;BME280;5469;48.574;8.768;2023-06-10T09:00:58;94634.66;;;25.27;45.06
10832;BME280;5469;48.574;8.768;2023-06-10T09:03:34;94628.78;;;25.22;46.99
10832;BME280;5469;48.574;8.768;2023-06-10T09:06:10;94627.88;;;25.48;46.29
10832;BME280;5469;48.574;8.768;2023-06-10T09:08:46;94625.56;;;25.87;46.31
10832;BME280;5469;48.574;8.768;2023-06-10T09:11:22;94629.03;;;25.88;44.17
10832;BME280;5469;48.574;8.768;2023-06-10T09:13:58;94627.25;;;25.65;44.54
10832;BME280;5469;48.574;8.768;2023-06-10T09:16:34;94629.38;;;25.83;45.47
10832;BME280;5469;48.574;8.768;2023-06-10T09:19:09;94629.59;;;25.63;43.45
10832;BME280;5469;48.574;8.768;2023-06-10T09:21:45;94631.56;;;26.11;42.82
10832;BME280;5469;48.574;8.768;2023-06-10T09:24:20;94625.56;;;26.39;44.41
10832;BME280;5469;48.574;8.768;2023-06-10T09:27:05;94630.91;;;26.28;46.88
10832;BME280;5469;48.574;8.768;2023-06-10T09:29:48;94632.00;;;25.76;45.55
10832;BME280;5469;48.574;8.768;2023-06-10T09:32:26;94629.63;;;25.70;44.21
10832;BME280;5469;48.574;8.768;2023-06-10T09:35:02;94637.94;;;25.85;43.06
10832;BME280;5469;48.574;8.768;2023-06-10T09:37:48;94623.09;;;26.20;42.86
10832;BME280;5469;48.574;8.768;2023-06-10T09:40:25;94628.53;;;26.82;42.64
10832;BME280;5469;48.574;8.768;2023-06-10T09:43:02;94626.66;;;26.31;42.72
10832;BME280;5469;48.574;8.768;2023-06-10T09:45:37;94629.88;;;26.47;42.85
10832;BME280;5469;48.574;8.768;2023-06-10T09:48:13;94627.81;;;26.92;42.36
10832;BME280;5469;48.574;8.768;2023-06-10T09:50:49;94630.47;;;26.78;42.46
10832;BME280;5469;48.574;8.768;2023-06-10T09:53:24;94619.19;;;26.76;41.18
10832;BME280;5469;48.574;8.768;2023-06-10T09:56:00;94622.16;;;27.33;40.42
10832;BME280;5469;48.574;8.768;2023-06-10T09:58:38;94613.97;;;27.22;42.05
10832;BME280;5469;48.574;8.768;2023-06-10T10:01:14;94622.63;;;27.71;40.90
10832;BME280;5469;48.574;8.768;2023-06-10T10:03:51;94620.66;;;27.75;39.88
10832;BME280;5469;48.574;8.768;2023-06-10T10:06:27;94628.78;;;27.47;41.24
10832;BME280;5469;48.574;8.768;2023-06-10T10:09:02;94628.88;;;26.70;41.95
10832;BME280;5469;48.574;8.768;2023-06-10T10:11:38;94617.88;;;27.21;42.29
10832;BME280;5469;48.574;8.768;2023-06-10T10:14:18;94627.50;;;29.27;42.43
10832;BME280;5469;48.574;8.768;2023-06-10T10:16:56;94618.78;;;29.53;40.13
10832;BME280;5469;48.574;8.768;2023-06-10T10:19:34;94625.50;;;30.04;38.64
10832;BME280;5469;48.574;8.768;2023-06-10T10:22:15;94624.28;;;29.46;37.77
10832;BME280;5469;48.574;8.768;2023-06-10T10:24:59;94626.31;;;30.46;36.27
10832;BME280;5469;48.574;8.768;2023-06-10T10:27:40;94627.13;;;30.85;36.15
10832;BME280;5469;48.574;8.768;2023-06-10T10:30:20;94619.69;;;29.29;38.85
10832;BME280;5469;48.574;8.768;2023-06-10T10:33:00;94623.28;;;32.92;33.54
10832;BME280;5469;48.574;8.768;2023-06-10T10:35:40;94621.84;;;31.90;34.92
10832;BME280;5469;48.574;8.768;2023-06-10T10:38:17;94614.63;;;32.03;33.05
10832;BME280;5469;48.574;8.768;2023-06-10T10:40:53;94617.16;;;32.41;32.72
10832;BME280;5469;48.574;8.768;2023-06-10T10:43:33;94619.03;;;32.44;32.21
10832;BME280;5469;48.574;8.768;2023-06-10T10:46:14;94622.06;;;32.53;32.74
10832;BME280;5469;48.574;8.768;2023-06-10T10:48:54;94619.91;;;31.32;35.05
10832;BME280;5469;48.574;8.768;2023-06-10T10:51:35;94621.44;;;30.65;35.35
10832;BME280;5469;48.574;8.768;2023-06-10T10:54:14;94607.50;;;31.82;35.12
10832;BME280;5469;48.574;8.768;2023-06-10T10:57:09;94609.34;;;31.89;33.17
10832;BME280;5469;48.574;8.768;2023-06-10T10:59:55;94617.78;;;30.82;35.04
10832;BME280;5469;48.574;8.768;2023-06-10T11:02:36;94608.63;;;32.79;32.09
10832;BME280;5469;48.574;8.768;2023-06-10T11:05:16;94605.88;;;33.39;31.04
10832;BME280;5469;48.574;8.768;2023-06-10T11:07:54;94601.91;;;33.03;32.79
10832;BME280;5469;48.574;8.768;2023-06-10T11:10:31;94603.66;;;32.27;30.95
10832;BME280;5469;48.574;8.768;2023-06-10T11:13:08;94605.44;;;32.37;32.22
10832;BME280;5469;48.574;8.768;2023-06-10T11:15:46;94613.06;;;30.79;34.24
10832;BME280;5469;48.574;8.768;2023-06-10T11:18:26;94607.72;;;32.18;31.67
10832;BME280;5469;48.574;8.768;2023-06-10T11:21:03;94609.84;;;32.78;31.08
10832;BME280;5469;48.574;8.768;2023-06-10T11:23:43;94609.84;;;33.90;30.31
10832;BME280;5469;48.574;8.768;2023-06-10T11:26:29;94609.31;;;33.63;29.53
10832;BME280;5469;48.574;8.768;2023-06-10T11:29:11;94607.63;;;34.67;29.32
10832;BME280;5469;48.574;8.768;2023-06-10T11:31:51;94601.19;;;33.76;29.70
10832;BME280;5469;48.574;8.768;2023-06-10T11:34:28;94606.34;;;33.54;27.50
10832;BME280;5469;48.574;8.768;2023-06-10T11:37:04;94602.13;;;33.69;30.13
10832;BME280;5469;48.574;8.768;2023-06-10T11:39:40;94605.78;;;34.77;27.32
10832;BME280;5469;48.574;8.768;2023-06-10T11:42:15;94604.44;;;34.69;27.17
10832;BME280;5469;48.574;8.768;2023-06-10T11:44:52;94602.06;;;35.26;27.98
10832;BME280;5469;48.574;8.768;2023-06-10T11:47:27;94600.88;;;37.11;26.69
10832;BME280;5469;48.574;8.768;2023-06-10T11:50:05;94593.13;;;35.63;27.49
10832;BME280;5469;48.574;8.768;2023-06-10T11:52:40;94603.78;;;31.96;30.05
10832;BME280;5469;48.574;8.768;2023-06-10T11:55:16;94603.94;;;31.58;30.94
10832;BME280;5469;48.574;8.768;2023-06-10T11:57:51;94599.03;;;32.00;31.20
10832;BME280;5469;48.574;8.768;2023-06-10T12:00:34;94593.50;;;30.84;32.22
10832;BME280;5469;48.574;8.768;2023-06-10T12:03:09;94595.75;;;33.72;30.13
10832;BME280;5469;48.574;8.768;2023-06-10T12:05:59;94593.91;;;35.09;30.23
10832;BME280;5469;48.574;8.768;2023-06-10T12:08:35;94586.25;;;34.26;28.00
10832;BME280;5469;48.574;8.768;2023-06-10T12:11:18;94587.94;;;34.03;28.41
10832;BME280;5469;48.574;8.768;2023-06-10T12:13:54;94587.97;;;32.04;30.26
10832;BME280;5469;48.574;8.768;2023-06-10T12:16:29;94588.81;;;31.50;30.96
10832;BME280;5469;48.574;8.768;2023-06-10T12:19:05;94589.03;;;31.86;31.22
10832;BME280;5469;48.574;8.768;2023-06-10T12:21:42;94584.94;;;33.98;29.55
10832;BME280;5469;48.574;8.768;2023-06-10T12:24:19;94586.31;;;35.13;27.73
10832;BME280;5469;48.574;8.768;2023-06-10T12:26:55;94591.25;;;35.99;28.11
10832;BME280;5469;48.574;8.768;2023-06-10T12:29:30;94583.19;;;35.79;26.54
10832;BME280;5469;48.574;8.768;2023-06-10T12:32:07;94585.75;;;32.42;29.01
10832;BME280;5469;48.574;8.768;2023-06-10T12:34:43;94586.94;;;31.70;29.62
10832;BME280;5469;48.574;8.768;2023-06-10T12:37:20;94579.63;;;34.23;27.54
10832;BME280;5469;48.574;8.768;2023-06-10T12:39:55;94579.66;;;34.07;27.19
10832;BME280;5469;48.574;8.768;2023-06-10T12:42:32;94579.66;;;35.91;26.05
10832;BME280;5469;48.574;8.768;2023-06-10T12:45:10;94584.72;;;32.59;29.09
10832;BME280;5469;48.574;8.768;2023-06-10T12:47:46;94581.38;;;31.47;31.55
10832;BME280;5469;48.574;8.768;2023-06-10T12:50:21;94584.00;;;33.35;30.58
10832;BME280;5469;48.574;8.768;2023-06-10T12:52:57;94578.41;;;34.99;26.81
10832;BME280;5469;48.574;8.768;2023-06-10T12:55:32;94575.69;;;35.66;26.37
10832;BME280;5469;48.574;8.768;2023-06-10T12:58:07;94575.69;;;35.92;25.69
10832;BME280;5469;48.574;8.768;2023-06-10T13:00:43;94570.94;;;35.93;26.50
10832;BME280;5469;48.574;8.768;2023-06-10T13:03:18;94565.69;;;35.60;24.32
10832;BME280;5469;48.574;8.768;2023-06-10T13:05:54;94575.16;;;33.07;27.63
10832;BME280;5469;48.574;8.768;2023-06-10T13:08:30;94569.25;;;32.46;28.90
10832;BME280;5469;48.574;8.768;2023-06-10T13:11:06;94569.22;;;32.49;29.15
10832;BME280;5469;48.574;8.768;2023-06-10T13:13:41;94561.34;;;34.62;28.82
10832;BME280;5469;48.574;8.768;2023-06-10T13:16:16;94566.22;;;35.00;25.39
10832;BME280;5469;48.574;8.768;2023-06-10T13:18:52;94555.56;;;36.30;27.07
10832;BME280;5469;48.574;8.768;2023-06-10T13:21:27;94548.16;;;37.59;26.44
10832;BME280;5469;48.574;8.768;2023-06-10T13:24:04;94553.78;;;37.87;25.07
10832;BME280;5469;48.574;8.768;2023-06-10T13:26:39;94553.41;;;35.99;26.85
10832;BME280;5469;48.574;8.768;2023-06-10T13:29:14;94548.03;;;33.99;29.05
10832;BME280;5469;48.574;8.768;2023-06-10T13:31:49;94553.31;;;35.64;26.77
10832;BME280;5469;48.574;8.768;2023-06-10T13:34:24;94549.97;;;35.82;27.56
10832;BME280;5469;48.574;8.768;2023-06-10T13:36:59;94555.72;;;34.36;28.38
10832;BME280;5469;48.574;8.768;2023-06-10T13:39:35;94551.63;;;33.79;29.17
10832;BME280;5469;48.574;8.768;2023-06-10T13:42:11;94551.50;;;34.77;27.68
10832;BME280;5469;48.574;8.768;2023-06-10T13:44:47;94540.91;;;36.55;25.83
10832;BME280;5469;48.574;8.768;2023-06-10T13:47:22;94538.72;;;35.26;26.49
10832;BME280;5469;48.574;8.768;2023-06-10T13:49:58;94545.16;;;33.17;28.46
10832;BME280;5469;48.574;8.768;2023-06-10T13:52:34;94546.06;;;33.46;29.37
10832;BME280;5469;48.574;8.768;2023-06-10T13:55:11;94547.88;;;32.13;29.82
10832;BME280;5469;48.574;8.768;2023-06-10T13:57:46;94544.41;;;31.86;31.12